»·PEaware :: AAR284 KLAX-KSFO

AAR284 :: KLAX-KSFO

FLIGHT INFORMATION

Flight Status: Arrived
Operator:
Asiana Airlines
More flights by this operator :: More flights under this callsign
Pilot: Rj Lopez (509)
Aircraft: BOEING 747-400 (WINGLETS)
(B744)
More flights by this aircraft type
Origin: KLAX Los Angeles Intl
United States
Destination: KSFO San Francisco Intl
United States
More flights between these airports :: More routes between these airports
Route: +VTU5 VTU J501 BSR BSR2
File this flight plan on PilotEdge
Remarks: B744 / L PBN / A1B1D1O1S2 NAV / RNVD1E2A1 DOF / 140715 REG / HL7426 EET / KZOA0024 RMK / TCAS EQPT
Altitude:
(Current/Filed)
28,000ft
Speed:
(Current/Filed)
467kts
Departed: 14-Jul-14 07:54 PM
Arrived: 14-Jul-14 08:46 PM
Distance/Time
Traveled:
294nm/0:52
Distance/Time
To Go:
Arrived

Flight Plot

Page will automatically refresh every two minutes.

Flight plan parsing failed; only flown route is shown


Map Options




Map Legend


Flown Route
Filed Route
Departure Airport
Arrival Airport
Navaid (VOR, NDB)
Fix

Horizontal Profiles

Position Reports

Time Latitude Longitude Heading Altitude Ground
Speed
14-Jul-14 19:04 33.942437 -118.383263 90 138ft 0kts
14-Jul-14 19:05 33.942437 -118.383263 90 138ft 0kts
14-Jul-14 19:06 33.942437 -118.383263 90 138ft 0kts
14-Jul-14 19:07 33.942437 -118.383263 90 138ft 0kts
14-Jul-14 19:08 33.942437 -118.383263 90 138ft 0kts
14-Jul-14 19:09 33.942437 -118.383263 90 138ft 0kts
14-Jul-14 19:10 33.942437 -118.383263 90 138ft 0kts
14-Jul-14 19:11 33.942437 -118.383263 90 138ft 0kts
14-Jul-14 19:12 33.942437 -118.383263 90 138ft 0kts
14-Jul-14 19:13 33.942437 -118.383263 90 138ft 0kts
14-Jul-14 19:14 33.942437 -118.383263 90 138ft 0kts
14-Jul-14 19:15 33.942437 -118.383263 90 138ft 0kts
14-Jul-14 19:16 33.942437 -118.383263 90 138ft 0kts
14-Jul-14 19:17 33.942437 -118.383263 90 138ft 0kts
14-Jul-14 19:18 33.942437 -118.383263 90 138ft 0kts
14-Jul-14 19:19 33.942437 -118.383263 90 138ft 0kts
14-Jul-14 19:20 33.942437 -118.383263 90 138ft 0kts
14-Jul-14 19:21 33.942437 -118.383263 90 138ft 0kts
14-Jul-14 19:22 33.942437 -118.383263 90 138ft 0kts
14-Jul-14 19:23 33.942437 -118.383263 90 138ft 0kts
14-Jul-14 19:24 33.942437 -118.383263 90 138ft 0kts
14-Jul-14 19:25 33.942437 -118.383263 90 138ft 0kts
14-Jul-14 19:26 33.942437 -118.383263 90 138ft 0kts
14-Jul-14 19:27 33.942437 -118.383263 90 138ft 0kts
14-Jul-14 19:28 33.942437 -118.383263 90 138ft 0kts
14-Jul-14 19:29 33.942437 -118.383263 90 138ft 0kts
14-Jul-14 19:30 33.942437 -118.383263 90 138ft 0kts
14-Jul-14 19:31 33.942437 -118.383263 90 138ft 0kts
14-Jul-14 19:32 33.942437 -118.383263 90 138ft 0kts
14-Jul-14 19:33 33.942437 -118.383263 90 138ft 0kts
14-Jul-14 19:34 33.942437 -118.383263 90 138ft 0kts
14-Jul-14 19:35 33.942437 -118.383263 90 138ft 0kts
14-Jul-14 19:36 33.942437 -118.383263 90 138ft 0kts
14-Jul-14 19:37 33.942437 -118.383263 90 138ft 0kts
14-Jul-14 19:38 33.942437 -118.383263 90 138ft 0kts
14-Jul-14 19:39 33.942437 -118.383391 90 138ft 1kts
14-Jul-14 19:40 33.942436 -118.383561 84 138ft 0kts
14-Jul-14 19:41 33.942436 -118.383560 84 138ft 0kts
14-Jul-14 19:42 33.942436 -118.383560 83 138ft 0kts
14-Jul-14 19:43 33.942436 -118.383559 83 138ft 0kts
14-Jul-14 19:44 33.942436 -118.383559 83 138ft 0kts
14-Jul-14 19:45 33.942436 -118.383558 83 138ft 0kts
14-Jul-14 19:46 33.942436 -118.383557 83 138ft 0kts
14-Jul-14 19:47 33.942436 -118.383555 83 138ft 0kts
14-Jul-14 19:48 33.942154 -118.383202 192 138ft 0kts
14-Jul-14 19:49 33.942139 -118.383206 192 138ft 1kts
14-Jul-14 19:50 33.940516 -118.383066 88 138ft 8kts
14-Jul-14 19:51 33.940678 -118.381489 81 138ft 2kts
14-Jul-14 19:52 33.940166 -118.380323 168 138ft 0kts
14-Jul-14 19:53 33.938121 -118.396733 262 139ft 176kts
14-Jul-14 19:54 33.930435 -118.467529 262 2893ft 253kts
14-Jul-14 19:55 33.920837 -118.556057 261 6483ft 274kts
14-Jul-14 19:56 33.932423 -118.647776 303 10029ft 299kts
14-Jul-14 19:57 33.994296 -118.734554 308 12122ft 380kts
14-Jul-14 19:58 34.060127 -118.839623 302 16721ft 402kts
14-Jul-14 19:59 34.113772 -118.961926 290 20664ft 430kts
14-Jul-14 20:00 34.158954 -119.098624 297 24226ft 450kts
14-Jul-14 20:01 34.226885 -119.231071 303 26928ft 480kts
14-Jul-14 20:02 34.300659 -119.368496 303 28079ft 486kts
14-Jul-14 20:03 34.374402 -119.506482 302 28086ft 488kts
14-Jul-14 20:04 34.446840 -119.645952 301 28085ft 487kts
14-Jul-14 20:05 34.528795 -119.774928 321 28060ft 484kts
14-Jul-14 20:06 34.631437 -119.884387 318 28036ft 489kts
14-Jul-14 20:07 34.731597 -119.994827 318 28044ft 485kts
14-Jul-14 20:08 34.831940 -120.105479 318 28043ft 486kts
14-Jul-14 20:09 34.932402 -120.217543 317 28044ft 493kts
14-Jul-14 20:10 35.033280 -120.330911 317 28046ft 492kts
14-Jul-14 20:11 35.134093 -120.445397 316 28044ft 492kts
14-Jul-14 20:12 35.232033 -120.559289 316 28035ft 483kts
14-Jul-14 20:13 35.332738 -120.668345 319 28038ft 481kts
14-Jul-14 20:14 35.429711 -120.782347 318 28036ft 482kts
14-Jul-14 20:15 35.544187 -120.867087 332 28035ft 480kts
14-Jul-14 20:16 35.660874 -120.949810 329 27994ft 484kts
14-Jul-14 20:17 35.774068 -121.038837 327 27690ft 478kts
14-Jul-14 20:18 35.880690 -121.136555 322 27271ft 476kts
14-Jul-14 20:19 35.984755 -121.236915 322 26770ft 470kts
14-Jul-14 20:20 36.075360 -121.347324 308 26468ft 434kts
14-Jul-14 20:21 36.142780 -121.465673 300 25814ft 398kts
14-Jul-14 20:22 36.187376 -121.586111 290 24807ft 414kts
14-Jul-14 20:23 36.253841 -121.693037 317 22740ft 403kts
14-Jul-14 20:24 36.328378 -121.761027 323 21067ft 393kts
14-Jul-14 20:25 36.428387 -121.851086 329 18990ft 371kts
14-Jul-14 20:26 36.508407 -121.885349 346 17381ft 356kts
14-Jul-14 20:27 36.603449 -121.916021 346 15346ft 347kts
14-Jul-14 20:28 36.694518 -121.945491 346 13600ft 330kts
14-Jul-14 20:29 36.783205 -121.965298 347 12006ft 307kts
14-Jul-14 20:30 36.862952 -121.988260 346 11475ft 291kts
14-Jul-14 20:31 36.941473 -122.011568 347 10974ft 288kts
14-Jul-14 20:32 37.020896 -122.028988 346 10473ft 288kts
14-Jul-14 20:33 37.098472 -122.052657 346 10023ft 283kts
14-Jul-14 20:34 37.176937 -122.068626 352 9516ft 283kts
14-Jul-14 20:35 37.256300 -122.070268 359 7451ft 286kts
14-Jul-14 20:36 37.332216 -122.085593 344 5899ft 266kts
14-Jul-14 20:37 37.400242 -122.108859 344 4642ft 236kts
14-Jul-14 20:38 37.452905 -122.135442 324 3763ft 186kts
14-Jul-14 20:39 37.494997 -122.172329 327 2824ft 154kts
14-Jul-14 20:40 37.528322 -122.200862 325 2874ft 143kts
14-Jul-14 20:41 37.558854 -122.235672 312 2228ft 145kts
14-Jul-14 20:42 37.580690 -122.278625 300 1564ft 140kts
14-Jul-14 20:43 37.598538 -122.321658 299 703ft 143kts
14-Jul-14 20:44 37.616312 -122.363865 297 59ft 128kts
14-Jul-14 20:45 37.624247 -122.381061 15 24ft 2kts
14-Jul-14 20:46 37.625243 -122.381454 296 24ft 15kts

Navigation Log

Ident Type
Flight plan parsing failed, navigation log unavailable